createdAt,value
2022-11-17T00:00:39.732Z,20.08
2022-11-17T00:03:07.015Z,20.85
2022-11-17T00:05:35.860Z,18.77
2022-11-17T00:08:03.113Z,20.67
2022-11-17T00:10:30.391Z,20.35
2022-11-17T00:13:16.242Z,19.60
2022-11-17T00:15:44.581Z,21.00
2022-11-17T00:18:30.258Z,22.13
2022-11-17T00:21:16.425Z,18.90
2022-11-17T00:23:50.365Z,19.98
2022-11-17T00:26:22.858Z,19.67
2022-11-17T00:28:57.638Z,21.05
2022-11-17T00:31:45.395Z,22.17
2022-11-17T00:34:16.228Z,18.38
2022-11-17T00:36:46.281Z,21.40
2022-11-17T00:39:15.095Z,20.67
2022-11-17T00:41:42.780Z,22.40
2022-11-17T00:44:10.759Z,20.05
2022-11-17T00:46:38.808Z,18.45
2022-11-17T00:49:07.222Z,17.48
2022-11-17T00:51:35.159Z,18.95
2022-11-17T00:54:02.653Z,18.48
2022-11-17T00:56:30.160Z,20.00
2022-11-17T00:58:57.879Z,21.48
2022-11-17T01:01:25.830Z,20.38
2022-11-17T01:04:03.368Z,20.75
2022-11-17T01:06:40.893Z,19.98
2022-11-17T01:09:16.556Z,19.42
2022-11-17T01:11:44.252Z,20.08
2022-11-17T01:14:14.136Z,23.48
2022-11-17T01:16:41.872Z,21.98
2022-11-17T01:19:11.926Z,20.35
2022-11-17T01:21:39.324Z,18.42
2022-11-17T01:24:06.911Z,18.30
2022-11-17T01:26:36.287Z,20.83
2022-11-17T01:29:04.737Z,20.38
2022-11-17T01:31:34.922Z,18.40
2022-11-17T01:34:02.282Z,17.15
2022-11-17T01:36:57.676Z,18.33
2022-11-17T01:39:26.847Z,16.20
2022-11-17T01:41:55.017Z,17.67
2022-11-17T01:44:49.669Z,18.00
2022-11-17T01:47:26.479Z,18.38
2022-11-17T01:50:20.070Z,18.13
2022-11-17T01:52:50.421Z,17.73
2022-11-17T01:55:21.372Z,20.40
2022-11-17T01:57:59.402Z,19.35
2022-11-17T02:00:27.490Z,19.52
2022-11-17T02:02:54.800Z,17.98
2022-11-17T02:05:21.966Z,17.98
2022-11-17T02:07:52.626Z,19.60
2022-11-17T02:10:20.024Z,17.75
2022-11-17T02:12:48.813Z,20.65
2022-11-17T02:15:16.252Z,21.75
2022-11-17T02:17:43.905Z,20.15
2022-11-17T02:20:23.567Z,19.95
2022-11-17T02:23:21.738Z,18.77
2022-11-17T02:26:07.659Z,21.13
2022-11-17T02:28:38.124Z,19.77
2022-11-17T02:31:29.781Z,20.38
2022-11-17T02:34:21.602Z,19.38
2022-11-17T02:36:58.859Z,17.58
2022-11-17T02:39:47.280Z,16.85
2022-11-17T02:42:57.984Z,17.25
2022-11-17T02:45:33.421Z,17.95
2022-11-17T02:48:05.523Z,17.00
2022-11-17T02:50:36.360Z,19.02
2022-11-17T02:53:04.756Z,17.60
2022-11-17T02:55:35.369Z,18.70
2022-11-17T02:58:02.592Z,18.92
2022-11-17T03:00:34.331Z,17.50
2022-11-17T03:03:18.179Z,17.75
2022-11-17T03:06:24.767Z,19.65
2022-11-17T03:09:04.229Z,19.38
2022-11-17T03:11:58.412Z,19.02
2022-11-17T03:14:50.216Z,20.50
2022-11-17T03:17:59.757Z,22.10
2022-11-17T03:20:47.567Z,24.98
2022-11-17T03:23:21.256Z,27.05
2022-11-17T03:25:54.816Z,25.83
2022-11-17T03:28:27.077Z,21.40
2022-11-17T03:30:55.924Z,23.65
2022-11-17T03:33:25.580Z,22.52
2022-11-17T03:35:58.604Z,20.85
2022-11-17T03:38:29.768Z,24.00
2022-11-17T03:41:03.152Z,21.73
2022-11-17T03:43:32.451Z,26.15
2022-11-17T03:46:07.256Z,25.25
2022-11-17T03:48:50.973Z,27.25
2022-11-17T03:51:26.142Z,22.45
2022-11-17T03:53:54.670Z,23.17
2022-11-17T03:56:54.095Z,23.77
2022-11-17T03:59:33.767Z,24.05
2022-11-17T04:02:01.043Z,21.75
2022-11-17T04:04:48.350Z,22.40
2022-11-17T04:07:15.663Z,24.23
2022-11-17T04:09:43.046Z,22.25
2022-11-17T04:12:28.988Z,22.00
2022-11-17T04:15:14.946Z,22.57
2022-11-17T04:17:42.227Z,21.08
2022-11-17T04:20:10.121Z,24.35
2022-11-17T04:22:37.326Z,22.88
2022-11-17T04:25:04.873Z,21.75
2022-11-17T04:27:50.685Z,22.83
2022-11-17T04:30:18.002Z,25.42
2022-11-17T04:32:45.241Z,26.73
2022-11-17T04:35:12.470Z,25.90
2022-11-17T04:37:39.678Z,31.67
2022-11-17T04:40:07.814Z,26.58
2022-11-17T04:42:35.019Z,25.73
2022-11-17T04:45:02.305Z,27.75
2022-11-17T04:47:29.543Z,29.02
2022-11-17T04:49:56.758Z,28.10
2022-11-17T04:52:29.489Z,27.52
2022-11-17T04:54:57.176Z,25.63
2022-11-17T04:57:24.574Z,24.88
2022-11-17T04:59:51.867Z,24.48
2022-11-17T05:02:19.174Z,26.77
2022-11-17T05:04:55.893Z,27.92
2022-11-17T05:07:24.207Z,23.98
2022-11-17T05:09:51.441Z,22.85
2022-11-17T05:12:37.452Z,23.55
2022-11-17T05:15:05.127Z,22.45
2022-11-17T05:17:32.424Z,21.80
2022-11-17T05:19:59.690Z,22.63
2022-11-17T05:22:45.572Z,23.50
2022-11-17T05:25:12.774Z,21.50
2022-11-17T05:27:40.092Z,24.52
2022-11-17T05:30:08.450Z,25.85
2022-11-17T05:32:35.713Z,25.08
2022-11-17T05:35:02.974Z,26.65
2022-11-17T05:37:30.191Z,27.40
2022-11-17T05:39:57.452Z,28.70
2022-11-17T05:42:24.712Z,28.25
2022-11-17T05:44:52.035Z,29.70
2022-11-17T05:47:19.296Z,41.53
2022-11-17T05:49:46.555Z,31.63
2022-11-17T05:52:13.822Z,31.92
2022-11-17T05:54:41.161Z,36.20
2022-11-17T05:57:16.737Z,29.70
2022-11-17T05:59:46.952Z,33.53
2022-11-17T06:02:21.926Z,30.60
2022-11-17T06:04:50.186Z,28.48
2022-11-17T06:07:19.421Z,27.52
2022-11-17T06:09:47.668Z,26.63
2022-11-17T06:12:15.480Z,30.70
2022-11-17T06:14:43.053Z,27.05
2022-11-17T06:17:27.568Z,26.58
2022-11-17T06:20:02.899Z,29.48
2022-11-17T06:22:30.687Z,27.20
2022-11-17T06:24:58.619Z,26.15
2022-11-17T06:27:26.643Z,28.98
2022-11-17T06:29:55.310Z,28.30
2022-11-17T06:32:22.845Z,27.90
2022-11-17T06:34:55.680Z,28.27
2022-11-17T06:37:25.262Z,27.92
2022-11-17T06:39:52.861Z,28.95
2022-11-17T06:42:40.071Z,27.90
2022-11-17T06:45:08.043Z,27.85
2022-11-17T06:47:35.272Z,26.77
2022-11-17T06:50:02.860Z,27.58
2022-11-17T06:52:30.120Z,29.83
2022-11-17T06:54:57.458Z,28.00
2022-11-17T06:57:24.804Z,25.80
2022-11-17T06:59:52.616Z,26.60
2022-11-17T07:02:20.458Z,27.90
2022-11-17T07:04:47.775Z,25.85
2022-11-17T07:07:15.071Z,26.42
2022-11-17T07:09:42.458Z,27.85
2022-11-17T07:12:09.777Z,29.67
2022-11-17T07:14:37.243Z,28.55
2022-11-17T07:17:04.590Z,28.08
2022-11-17T07:19:31.852Z,28.15
2022-11-17T07:21:59.219Z,28.75
2022-11-17T07:24:26.511Z,25.75
2022-11-17T07:26:54.193Z,25.02
2022-11-17T07:29:21.554Z,25.38
2022-11-17T07:31:48.875Z,27.45
2022-11-17T07:34:16.397Z,27.50
2022-11-17T07:36:43.652Z,27.10
2022-11-17T07:39:10.966Z,32.28
2022-11-17T07:41:38.484Z,30.48
2022-11-17T07:44:06.021Z,39.75
2022-11-17T07:46:33.482Z,31.45
2022-11-17T07:49:00.871Z,26.58
2022-11-17T07:51:28.352Z,27.08
2022-11-17T07:53:55.846Z,29.08
2022-11-17T07:56:25.618Z,29.73
2022-11-17T07:58:54.498Z,27.98
2022-11-17T08:01:21.823Z,31.70
2022-11-17T08:03:49.294Z,33.72
2022-11-17T08:06:17.039Z,30.30
2022-11-17T08:08:44.412Z,35.83
2022-11-17T08:11:12.968Z,32.47
2022-11-17T08:13:41.429Z,30.30
2022-11-17T08:16:10.246Z,29.88
2022-11-17T08:18:38.405Z,25.85
2022-11-17T08:21:14.721Z,26.60
2022-11-17T08:23:42.584Z,24.15
2022-11-17T08:26:11.418Z,25.08
2022-11-17T08:28:39.319Z,24.83
2022-11-17T08:31:08.075Z,22.35
2022-11-17T08:33:36.069Z,25.50
2022-11-17T08:36:04.759Z,26.02
2022-11-17T08:38:32.292Z,23.17
2022-11-17T08:41:03.367Z,24.35
2022-11-17T08:43:31.237Z,24.52
2022-11-17T08:45:58.754Z,21.90
2022-11-17T08:48:26.221Z,24.20
2022-11-17T08:50:53.607Z,25.65
2022-11-17T08:53:23.409Z,26.42
2022-11-17T08:55:51.995Z,23.95
2022-11-17T08:58:19.410Z,24.95
2022-11-17T09:00:47.604Z,22.92
2022-11-17T09:03:15.431Z,18.85
2022-11-17T09:05:45.371Z,20.48
2022-11-17T09:11:10.158Z,21.10
2022-11-17T09:13:38.759Z,22.08
2022-11-17T09:16:09.096Z,22.90
2022-11-17T09:18:39.014Z,22.38
2022-11-17T09:21:10.381Z,25.48
2022-11-17T09:23:38.364Z,23.15
2022-11-17T09:26:08.048Z,24.67
2022-11-17T09:28:35.799Z,25.63
2022-11-17T09:31:21.868Z,30.45
2022-11-17T09:33:49.332Z,30.67
2022-11-17T09:36:17.271Z,29.80
2022-11-17T09:38:44.890Z,28.40
2022-11-17T09:41:24.269Z,30.20
2022-11-17T09:44:03.869Z,33.60
2022-11-17T09:47:03.168Z,33.00
2022-11-17T09:49:34.840Z,34.53
2022-11-17T09:52:34.834Z,40.80
2022-11-17T09:55:29.714Z,41.65
2022-11-17T09:58:15.384Z,40.35
2022-11-17T10:00:47.293Z,43.90
2022-11-17T10:03:25.018Z,45.67
2022-11-17T10:05:53.423Z,41.72
2022-11-17T10:08:37.750Z,43.95
2022-11-17T10:11:31.611Z,47.03
2022-11-17T10:14:15.841Z,41.25
2022-11-17T10:16:58.155Z,38.50
2022-11-17T10:19:27.963Z,38.35
2022-11-17T10:22:02.371Z,33.97
2022-11-17T10:24:44.255Z,34.85
2022-11-17T10:27:17.655Z,36.28
2022-11-17T10:30:01.886Z,34.45
2022-11-17T10:32:34.152Z,33.78
2022-11-17T10:35:18.262Z,36.38
2022-11-17T10:37:52.680Z,35.65
2022-11-17T10:40:25.346Z,34.53
2022-11-17T10:43:14.350Z,36.88
2022-11-17T10:46:09.702Z,34.85
2022-11-17T10:48:39.329Z,37.50
2022-11-17T10:51:22.478Z,34.95
2022-11-17T10:54:08.840Z,37.10
2022-11-17T10:56:43.663Z,35.92
2022-11-17T10:59:21.719Z,36.33
2022-11-17T11:01:52.930Z,40.97
2022-11-17T11:04:46.508Z,50.60
2022-11-17T11:07:24.186Z,50.55
2022-11-17T11:10:16.329Z,50.40
2022-11-17T11:13:02.665Z,47.72
2022-11-17T11:15:39.184Z,45.88
2022-11-17T11:18:16.111Z,49.58
2022-11-17T11:20:59.778Z,46.35
2022-11-17T11:23:56.081Z,45.65
2022-11-17T11:26:30.053Z,47.33
2022-11-17T11:29:05.399Z,46.42
2022-11-17T11:32:04.708Z,52.60
2022-11-17T11:34:47.087Z,39.83
2022-11-17T11:37:16.187Z,42.08
2022-11-17T11:40:09.846Z,39.63
2022-11-17T11:42:50.340Z,41.17
2022-11-17T11:56:42.717Z,28.98
2022-11-17T11:59:19.361Z,29.67
2022-11-17T12:02:02.771Z,26.45
2022-11-17T12:04:30.071Z,27.65
2022-11-17T12:07:33.138Z,27.23
2022-11-17T12:10:12.913Z,31.08
2022-11-17T12:12:44.266Z,25.02
2022-11-17T12:15:20.763Z,24.92
2022-11-17T12:18:11.560Z,26.60
2022-11-17T12:20:38.792Z,28.70
2022-11-17T12:23:47.700Z,32.25
2022-11-17T12:26:29.718Z,31.83
2022-11-17T12:29:27.016Z,31.80
2022-11-17T12:32:00.055Z,31.77
2022-11-17T12:34:30.649Z,26.35
2022-11-17T12:37:05.927Z,28.05
2022-11-17T12:39:59.303Z,26.67
2022-11-17T12:42:28.123Z,30.25
2022-11-17T12:45:10.732Z,32.92
2022-11-17T12:47:59.390Z,31.88
2022-11-17T12:51:26.001Z,35.85
2022-11-17T12:54:04.446Z,33.97
2022-11-17T12:56:40.765Z,35.42
2022-11-17T13:02:15.526Z,33.63
2022-11-17T13:04:50.955Z,34.70
2022-11-17T13:07:23.937Z,33.92
2022-11-17T13:09:53.274Z,32.95
2022-11-17T13:12:26.228Z,31.65
2022-11-17T13:14:59.426Z,37.08
2022-11-17T13:17:32.986Z,35.05
2022-11-17T13:20:25.231Z,34.30
2022-11-17T13:23:00.817Z,36.85
2022-11-17T13:25:28.313Z,39.40
2022-11-17T13:28:01.240Z,38.25
2022-11-17T13:30:32.858Z,33.25
2022-11-17T13:33:03.093Z,36.75
2022-11-17T13:35:33.361Z,39.47
2022-11-17T13:38:02.352Z,38.67
2022-11-17T13:40:30.681Z,42.25
2022-11-17T13:42:58.938Z,37.67
2022-11-17T13:45:27.673Z,41.72
2022-11-17T13:47:55.325Z,38.83
2022-11-17T13:50:31.446Z,41.53
2022-11-17T13:53:00.447Z,39.72
2022-11-17T13:55:28.359Z,39.90
2022-11-17T13:58:02.858Z,39.90
2022-11-17T14:00:31.726Z,36.63
2022-11-17T14:03:04.762Z,36.25
2022-11-17T14:05:33.461Z,38.45
2022-11-17T14:08:31.868Z,34.60
2022-11-17T14:11:26.216Z,38.85
2022-11-17T14:13:59.049Z,36.13
2022-11-17T14:16:37.521Z,35.45
2022-11-17T14:19:06.420Z,25.63
2022-11-17T14:21:33.869Z,32.95
2022-11-17T14:24:06.435Z,31.55
2022-11-17T14:26:34.040Z,27.85
2022-11-17T14:29:04.821Z,29.58
2022-11-17T14:31:32.154Z,32.83
2022-11-17T14:33:59.856Z,30.08
2022-11-17T14:36:27.401Z,30.27
2022-11-17T14:38:54.923Z,29.20
2022-11-17T14:41:22.265Z,31.23
2022-11-17T14:43:51.194Z,33.25
2022-11-17T14:46:24.559Z,31.55
2022-11-17T14:48:52.649Z,32.35
2022-11-17T14:51:20.783Z,34.33
2022-11-17T14:53:48.584Z,36.55
2022-11-17T14:56:18.123Z,33.28
2022-11-17T14:58:47.188Z,33.10
2022-11-17T15:01:19.888Z,30.08
2022-11-17T15:03:47.341Z,35.78
2022-11-17T15:06:19.371Z,35.13
2022-11-17T15:08:48.361Z,37.10
2022-11-17T15:11:17.880Z,38.38
2022-11-17T15:13:45.172Z,39.22
2022-11-17T15:16:12.531Z,41.15
2022-11-17T15:18:39.796Z,41.97
2022-11-17T15:21:09.627Z,45.78
2022-11-17T15:23:38.527Z,42.05
2022-11-17T15:26:08.338Z,44.17
2022-11-17T15:28:35.786Z,44.00
2022-11-17T15:31:10.338Z,42.25
2022-11-17T15:33:40.614Z,40.38
2022-11-17T15:36:10.283Z,40.72
2022-11-17T15:38:38.690Z,35.78
2022-11-17T15:41:07.468Z,39.13
2022-11-17T15:43:37.147Z,41.35
2022-11-17T15:46:16.705Z,39.20
2022-11-17T15:48:45.981Z,39.90
2022-11-17T15:51:20.963Z,41.97
2022-11-17T15:53:49.974Z,44.80
2022-11-17T15:56:23.004Z,49.05
2022-11-17T15:58:56.682Z,50.47
2022-11-17T16:01:24.829Z,51.70
2022-11-17T16:03:56.888Z,48.95
2022-11-17T16:06:24.297Z,49.13
2022-11-17T16:08:51.632Z,50.92
2022-11-17T16:11:19.254Z,49.42
2022-11-17T16:13:46.886Z,54.83
2022-11-17T16:16:15.716Z,52.58
2022-11-17T16:18:43.101Z,53.15
2022-11-17T16:21:12.583Z,49.75
2022-11-17T16:23:48.582Z,50.63
2022-11-17T16:26:17.644Z,47.92
2022-11-17T16:28:46.716Z,54.88
2022-11-17T16:31:22.972Z,56.50
2022-11-17T16:36:20.268Z,60.13
2022-11-17T16:39:01.325Z,56.25
2022-11-17T16:41:32.686Z,57.53
2022-11-17T16:44:00.899Z,52.80
2022-11-17T16:46:30.558Z,55.70
2022-11-17T16:49:02.244Z,49.53
2022-11-17T16:51:30.173Z,49.00
2022-11-17T16:54:03.298Z,52.53
2022-11-17T16:56:31.647Z,50.38
2022-11-17T16:58:59.231Z,54.03
2022-11-17T17:01:30.750Z,55.78
2022-11-17T17:04:00.508Z,56.45
2022-11-17T17:06:28.241Z,56.42
2022-11-17T17:09:01.110Z,52.30
2022-11-17T17:11:31.438Z,52.90
2022-11-17T17:14:00.310Z,54.65
2022-11-17T17:16:27.624Z,52.88
2022-11-17T17:19:00.022Z,53.38
2022-11-17T17:21:28.955Z,53.03
2022-11-17T17:23:56.997Z,53.60
2022-11-17T17:26:26.483Z,51.47
2022-11-17T17:28:55.831Z,54.78
2022-11-17T17:31:24.425Z,55.72
2022-11-17T17:33:52.336Z,51.47
2022-11-17T17:36:25.009Z,52.67
2022-11-17T17:38:56.276Z,54.55
2022-11-17T17:41:29.435Z,55.30
2022-11-17T17:43:59.531Z,51.15
2022-11-17T17:46:29.753Z,51.53
2022-11-17T17:48:58.092Z,59.08
2022-11-17T17:51:27.334Z,54.10
2022-11-17T17:53:57.915Z,54.10
2022-11-17T17:56:25.506Z,53.83
2022-11-17T17:58:56.688Z,56.35
2022-11-17T18:01:29.275Z,51.83
2022-11-17T18:04:01.127Z,47.42
2022-11-17T18:06:28.657Z,54.42
2022-11-17T18:08:57.796Z,55.63
2022-11-17T18:11:25.958Z,55.10
2022-11-17T18:13:54.336Z,55.20
2022-11-17T18:16:27.087Z,57.30
2022-11-17T18:19:06.358Z,58.40
2022-11-17T18:21:34.002Z,58.70
2022-11-17T18:24:02.383Z,59.65
2022-11-17T18:26:31.916Z,60.33
2022-11-17T18:29:00.869Z,57.40
2022-11-17T18:31:30.393Z,61.72
2022-11-17T18:33:59.909Z,59.75
2022-11-17T18:36:28.819Z,62.28
2022-11-17T18:38:58.615Z,71.43
2022-11-17T18:41:27.378Z,62.30
2022-11-17T18:43:55.342Z,60.58
2022-11-17T18:46:25.790Z,57.97
2022-11-17T18:48:54.026Z,62.03
2022-11-17T18:51:24.262Z,60.35
2022-11-17T18:53:54.544Z,62.58
2022-11-17T18:56:25.248Z,64.38
2022-11-17T18:58:52.852Z,62.95
2022-11-17T19:01:25.704Z,68.45
2022-11-17T19:03:54.941Z,67.55
2022-11-17T19:06:24.883Z,61.03
2022-11-17T19:08:52.906Z,67.65
2022-11-17T19:11:22.045Z,65.40
2022-11-17T19:13:49.754Z,110.45
2022-11-17T19:16:19.935Z,82.43
2022-11-17T19:18:49.000Z,66.80
2022-11-17T19:21:21.836Z,105.28
2022-11-17T19:23:51.843Z,72.28
2022-11-17T19:26:31.182Z,66.93
2022-11-17T19:29:15.999Z,67.07
2022-11-17T19:31:45.307Z,65.47
2022-11-17T19:34:12.941Z,65.57
2022-11-17T19:36:41.703Z,67.80
2022-11-17T19:39:11.485Z,67.78
2022-11-17T19:41:39.958Z,81.80
2022-11-17T19:44:08.740Z,87.85
2022-11-17T19:46:36.401Z,72.18
2022-11-17T19:49:05.830Z,61.85
2022-11-17T19:51:36.632Z,82.45
2022-11-17T19:54:07.853Z,74.60
2022-11-17T19:56:35.675Z,70.95
2022-11-17T19:59:03.546Z,70.15
2022-11-17T20:01:31.873Z,68.32
2022-11-17T20:04:00.574Z,71.28
2022-11-17T20:06:33.901Z,73.07
2022-11-17T20:09:01.288Z,71.57
2022-11-17T20:11:28.985Z,69.55
2022-11-17T20:13:56.586Z,73.68
2022-11-17T20:16:26.260Z,66.75
2022-11-17T20:18:55.755Z,69.22
2022-11-17T20:21:24.213Z,68.63
2022-11-17T20:23:51.831Z,73.18
2022-11-17T20:26:24.715Z,66.65
2022-11-17T20:28:53.228Z,72.50
2022-11-17T20:31:24.158Z,68.32
2022-11-17T20:33:53.763Z,69.55
2022-11-17T20:36:21.846Z,75.43
2022-11-17T20:39:00.743Z,66.50
2022-11-17T20:41:28.510Z,68.88
2022-11-17T20:43:57.613Z,67.30
2022-11-17T20:46:25.330Z,73.78
2022-11-17T20:48:52.823Z,66.70
2022-11-17T20:51:22.436Z,69.60
2022-11-17T20:53:52.978Z,66.88
2022-11-17T20:56:23.668Z,67.47
2022-11-17T20:58:51.093Z,65.97
2022-11-17T21:01:21.345Z,66.50
2022-11-17T21:03:49.596Z,59.92
2022-11-17T21:06:18.209Z,63.33
2022-11-17T21:08:46.473Z,60.83
2022-11-17T21:11:36.709Z,63.80
2022-11-17T21:14:09.516Z,58.78
2022-11-17T21:16:38.662Z,61.47
2022-11-17T21:19:06.939Z,65.80
2022-11-17T21:21:37.714Z,66.60
2022-11-17T21:24:05.775Z,68.97
2022-11-17T21:26:34.058Z,78.40
2022-11-17T21:29:06.410Z,75.70
2022-11-17T21:31:36.445Z,72.18
2022-11-17T21:34:09.141Z,64.68
2022-11-17T21:36:36.545Z,70.78
2022-11-17T21:39:04.421Z,70.15
2022-11-17T21:41:38.698Z,72.97
2022-11-17T21:44:06.351Z,65.10
2022-11-17T21:46:35.186Z,66.75
2022-11-17T21:49:02.940Z,72.18
2022-11-17T21:51:33.717Z,70.80
2022-11-17T21:54:04.632Z,72.18
2022-11-17T21:56:32.328Z,68.97
2022-11-17T21:59:02.380Z,67.15
2022-11-17T22:01:30.932Z,74.18
2022-11-17T22:04:01.648Z,69.70
2022-11-17T22:06:29.900Z,64.90
2022-11-17T22:09:24.299Z,68.80
2022-11-17T22:11:52.142Z,65.97
2022-11-17T22:14:20.301Z,72.07
2022-11-17T22:16:49.739Z,71.50
2022-11-17T22:19:18.428Z,73.57
2022-11-17T22:21:48.277Z,64.82
2022-11-17T22:24:15.783Z,75.63
2022-11-17T22:26:44.255Z,74.38
2022-11-17T22:29:14.119Z,82.60
2022-11-17T22:31:42.223Z,75.68
2022-11-17T22:34:09.637Z,76.65
2022-11-17T22:36:37.494Z,77.97
2022-11-17T22:39:05.433Z,79.78
2022-11-17T22:41:32.733Z,73.90
2022-11-17T22:44:00.443Z,75.05
2022-11-17T22:46:28.661Z,78.85
2022-11-17T22:48:56.523Z,77.80
2022-11-17T22:51:43.264Z,76.72
2022-11-17T22:56:37.775Z,83.22
2022-11-17T22:59:05.255Z,75.93
2022-11-17T23:01:32.566Z,80.47
2022-11-17T23:04:02.413Z,74.63
2022-11-17T23:06:30.793Z,74.75
2022-11-17T23:08:58.975Z,74.60
2022-11-17T23:11:36.917Z,74.45
2022-11-17T23:14:07.837Z,70.47
2022-11-17T23:16:36.803Z,72.97
2022-11-17T23:19:05.609Z,72.10
2022-11-17T23:21:33.417Z,67.25
2022-11-17T23:24:01.399Z,67.40
2022-11-17T23:26:28.955Z,65.40
2022-11-17T23:28:58.294Z,63.47
2022-11-17T23:31:28.010Z,67.82
2022-11-17T23:33:55.786Z,60.83
2022-11-17T23:36:23.839Z,60.90
2022-11-17T23:38:52.066Z,57.03
2022-11-17T23:41:20.400Z,55.92
2022-11-17T23:43:52.305Z,57.97
2022-11-17T23:46:26.340Z,62.13
2022-11-17T23:48:54.737Z,58.25
2022-11-17T23:51:23.704Z,63.63
2022-11-17T23:53:51.604Z,55.78
2022-11-17T23:56:22.634Z,55.78
2022-11-17T23:58:59.136Z,57.05
